Flight Track Log - Related Links

Times and Time Zones

All times are in EDT time to prevent confusion due to time zone crossing. See the SWA1707 flight status page for this flight to view local times or setup timezone preferences in your user account.


Time Position Orientation Groundspeed Altitude Reporting Facility
EDT Latitude Longitude Course Direction KTS MPH feet Rate Location/Type
Wed 02:48:03 PM 42.3667 -70.9667 75° East 180 207 700  Level KA90
Wed 02:49:15 PM 42.3833 -70.8833 75° East 230 265 2,900 1,934 Climbing KA90
Wed 02:50:04 PM 42.3928 -70.8125 80° East 253 291 4,600 2,092 Climbing Boston Center
Wed 02:51:04 PM 42.3542 -70.7264 121° Southeast 298 343 6,700 2,400 Climbing Boston Center
Wed 02:52:04 PM 42.2750 -70.7369 186° South 265 305 9,400 2,550 Climbing Boston Center
Wed 02:53:04 PM 42.2281 -70.8083 228° Southwest 276 318 11,800 1,550 Climbing Boston Center
Wed 02:54:04 PM 42.2025 -70.9183 253° West 281 323 12,500 1,300 Climbing Boston Center
Wed 02:55:04 PM 42.1981 -71.0500 267° West 315 362 14,400 2,450 Climbing Boston Center
Wed 02:56:04 PM 42.1956 -71.1847 269° West 348 400 17,400 2,150 Climbing Boston Center
Wed 02:57:04 PM 42.1928 -71.3192 268° West 360 414 18,700 1,450 Climbing Boston Center
Wed 02:58:04 PM 42.1939 -71.4622 271° West 370 426 20,300 1,650 Climbing Boston Center
Wed 02:59:04 PM 42.1869 -71.6050 266° West 382 440 22,000 1,550 Climbing Boston Center
Wed 03:00:04 PM 42.1836 -71.7536 268° West 392 451 23,400 1,350 Climbing Boston Center
Wed 03:01:04 PM 42.1803 -71.9022 268° West 397 457 24,700 1,200 Climbing Boston Center
Wed 03:02:04 PM 42.1789 -72.0619 269° West 410 472 25,800 1,350 Climbing Boston Center
Wed 03:03:04 PM 42.1750 -72.2131 268° West 416 479 27,400 1,400 Climbing Boston Center
Wed 03:04:04 PM 42.1692 -72.3672 267° West 416 479 28,600 1,250 Climbing Boston Center
Wed 03:05:04 PM 42.1669 -72.5158 269° West 416 479 29,900 1,318 Climbing Boston Center
Wed 03:06:16 PM 42.1583 -72.6922 266° West 410 472 31,500 1,045 Climbing Boston Center
Wed 03:07:16 PM 42.1017 -72.8206 239° Southwest 389 448 32,200 800 Climbing Boston Center
Wed 03:08:16 PM 42.0367 -72.9347 233° Southwest 382 440 33,100 850 Climbing Boston Center
Wed 03:09:16 PM 41.9611 -73.0542 230° Southwest 402 463 33,900 450 Climbing Boston Center
Wed 03:10:16 PM 41.8625 -73.1508 216° Southwest 398 458 34,000 38 Climbing Boston Center
Wed 03:11:52 PM 41.7361 -73.3147 224° Southwest 400 460 34,000  Level New York Center
Wed 03:12:53 PM 41.6567 -73.4200 225° Southwest 400 460 34,000  Level New York Center
Wed 03:13:53 PM 41.5900 -73.5117 226° Southwest 400 460 34,000  Level New York Center
Wed 03:14:53 PM 41.5128 -73.6136 225° Southwest 394 453 34,000  Level New York Center
Wed 03:15:53 PM 41.4331 -73.7181 225° Southwest 394 453 34,000 -50 Level New York Center
Wed 03:16:52 PM 41.3556 -73.8225 225° Southwest 394 453 33,900  Descending New York Center
Wed 03:17:53 PM 41.2778 -73.9239 224° Southwest 394 453 34,000 50 Climbing New York Center
Wed 03:18:53 PM 41.1981 -74.0275 224° Southwest 394 453 34,000  Level New York Center
Wed 03:19:51 PM 41.1242 -74.1342 227° Southwest 394 453 34,000  Level New York Center
Wed 03:20:51 PM 41.0667 -74.2497 237° Southwest 394 453 34,000  Level New York Center
Wed 03:21:52 PM 41.0131 -74.3706 240° Southwest 394 453 34,000  Level New York Center
Wed 03:22:53 PM 40.9553 -74.4883 237° Southwest 387 445 34,000  Level New York Center
Wed 03:23:53 PM 40.9014 -74.6092 239° Southwest 387 445 34,000  Level New York Center
Wed 03:24:51 PM 40.8456 -74.7239 237° Southwest 382 440 34,000  Level New York Center
Wed 03:25:52 PM 40.7894 -74.8411 238° Southwest 382 440 34,000  Level New York Center
Wed 03:26:52 PM 40.7350 -74.9639 240° Southwest 382 440 34,000  Level New York Center
Wed 03:27:53 PM 40.6808 -75.0811 239° Southwest 382 440 34,000  Level New York Center
Wed 03:28:51 PM 40.6264 -75.1981 239° Southwest 382 440 34,000  Level New York Center
Wed 03:29:51 PM 40.5742 -75.3175 240° Southwest 377 434 34,000  Level New York Center
Wed 03:30:52 PM 40.5214 -75.4369 237° Southwest 377 434 34,000  Level New York Center
Wed 03:31:00 PM 40.5126 -75.4416 237° Southwest  Level FlightAware Approximate
Wed 03:31:52 PM 40.4667 -75.5558 239° Southwest 377 434 34,000  Level New York Center
Wed 03:32:51 PM 40.4119 -75.6722 238° Southwest 377 434 34,000  Level New York Center
Wed 03:33:53 PM 40.3569 -75.7908 239° Southwest 377 434 34,000  Level New York Center
Wed 03:36:08 PM 40.2250 -76.0697 238° Southwest 391 450 34,000 -31 Level Washington Center
Wed 03:37:08 PM 40.1706 -76.1858 238° Southwest 386 444 33,900  Descending Washington Center
Wed 03:38:08 PM 40.1178 -76.3022 239° Southwest 381 438 34,000 50 Climbing Washington Center
Wed 03:39:08 PM 40.0628 -76.4208 239° Southwest 381 438 34,000 -450 Level Washington Center
Wed 03:40:08 PM 40.0100 -76.5286 237° Southwest 389 448 33,100 -900 Descending Washington Center
Wed 03:41:08 PM 39.9550 -76.6444 238° Southwest 389 448 32,200 -1,000 Descending Washington Center
Wed 03:42:08 PM 39.8911 -76.7758 238° Southwest 389 448 31,100 -950 Descending Washington Center
Wed 03:43:08 PM 39.8464 -76.8725 239° Southwest 389 448 30,300 -550 Descending Washington Center
Wed 03:44:08 PM 39.7781 -77.0169 238° Southwest 389 448 30,000 -150 Descending Washington Center
Wed 03:45:08 PM 39.7203 -77.1428 239° Southwest 394 453 30,000  Level Washington Center
Wed 03:46:08 PM 39.6625 -77.2628 238° Southwest 399 459 30,000 -300 Level Washington Center
Wed 03:47:08 PM 39.6086 -77.3828 240° Southwest 399 459 29,400 -750 Descending Washington Center
Wed 03:48:08 PM 39.5506 -77.5025 238° Southwest 399 459 28,500 -700 Descending Washington Center
Wed 03:49:08 PM 39.4922 -77.6244 238° Southwest 399 459 28,000 -250 Descending Washington Center
Wed 03:50:08 PM 39.4339 -77.7439 238° Southwest 399 459 28,000  Level Washington Center
Wed 03:51:08 PM 39.3775 -77.8656 239° Southwest 399 459 28,000  Level Washington Center
Wed 03:52:08 PM 39.3294 -77.9875 243° Southwest 394 453 28,000  Level Washington Center
Wed 03:53:08 PM 39.2808 -78.1147 244° Southwest 389 448 28,000  Level Washington Center
Wed 03:54:08 PM 39.2303 -78.2389 242° Southwest 389 448 28,000  Level Washington Center
Wed 03:55:08 PM 39.1861 -78.3550 244° Southwest 395 455 28,000  Level Washington Center
Wed 03:56:08 PM 39.1353 -78.4789 242° Southwest 400 460 28,000  Level Washington Center
Wed 03:57:08 PM 39.0842 -78.6053 243° Southwest 400 460 28,000  Level Washington Center
Wed 03:58:08 PM 39.0331 -78.7289 242° Southwest 400 460 28,000  Level Washington Center
Wed 03:59:08 PM 38.9817 -78.8547 242° Southwest 400 460 28,000  Level Washington Center
Wed 04:00:08 PM 38.9303 -78.9806 242° Southwest 400 460 28,000  Level Washington Center
Wed 04:01:08 PM 38.8808 -79.1036 243° Southwest 400 460 28,000  Level Washington Center
Wed 04:02:08 PM 38.8353 -79.2322 246° West 400 460 28,000  Level Washington Center
Wed 04:03:08 PM 38.8125 -79.3669 258° West 395 455 28,000  Level Washington Center
Wed 04:04:08 PM 38.7894 -79.5017 258° West 389 448 28,000  Level Washington Center
Wed 04:05:08 PM 38.7614 -79.6519 257° West 394 453 28,000  Level Washington Center
Wed 04:06:08 PM 38.7381 -79.7836 257° West 394 453 28,000  Level Washington Center
Wed 04:07:08 PM 38.7128 -79.9153 256° West 388 447 28,000  Level Washington Center
Wed 04:08:08 PM 38.6917 -80.0311 257° West 388 447 28,000  Level Washington Center
Wed 04:09:40 PM 38.6508 -80.2342 256° West 371 427 28,000  Level Indianapolis Center
Wed 04:10:42 PM 38.6261 -80.3622 256° West 371 427 28,000  Level Indianapolis Center
Wed 04:11:44 PM 38.6028 -80.4872 257° West 363 418 28,000  Level Indianapolis Center
Wed 04:12:46 PM 38.5789 -80.6125 256° West 362 417 28,000  Level Indianapolis Center
Wed 04:13:48 PM 38.5536 -80.7389 256° West 364 419 28,000  Level Indianapolis Center
Wed 04:14:50 PM 38.5294 -80.8622 256° West 363 418 28,000  Level Indianapolis Center
Wed 04:15:52 PM 38.5056 -80.9869 256° West 361 415 28,000  Level Indianapolis Center
Wed 04:16:54 PM 38.4764 -81.1353 256° West 358 412 28,000  Level Indianapolis Center
Wed 04:17:56 PM 38.4522 -81.2586 256° West 357 411 28,000  Level Indianapolis Center
Wed 04:18:58 PM 38.4278 -81.3836 256° West 360 414 28,000  Level Indianapolis Center
Wed 04:20:00 PM 38.4025 -81.5083 256° West 360 414 28,000  Level Indianapolis Center
Wed 04:21:02 PM 38.3781 -81.6319 256° West 357 411 28,000  Level Indianapolis Center
Wed 04:22:04 PM 38.3553 -81.7542 257° West 354 407 28,000  Level Indianapolis Center
Wed 04:23:06 PM 38.3439 -81.8808 263° West 358 412 28,000  Level Indianapolis Center
Wed 04:24:08 PM 38.3306 -82.0061 262° West 356 410 28,000  Level Indianapolis Center
Wed 04:25:10 PM 38.3150 -82.1558 263° West 357 411 28,000  Level Indianapolis Center
Wed 04:26:13 PM 38.3025 -82.2800 263° West 354 407 28,000  Level Indianapolis Center
Wed 04:27:15 PM 38.2636 -82.3908 246° West 345 397 28,000  Level Indianapolis Center
Wed 04:28:17 PM 38.2258 -82.5011 246° West 348 400 28,000  Level Indianapolis Center
Wed 04:29:19 PM 38.1828 -82.6317 247° West 344 396 28,000  Level Indianapolis Center
Wed 04:30:21 PM 38.1447 -82.7419 246° West 342 394 28,000  Level Indianapolis Center
Wed 04:31:23 PM 38.1075 -82.8539 247° West 344 396 28,000  Level Indianapolis Center
Wed 04:32:25 PM 38.0697 -82.9614 246° West 338 389 28,000  Level Indianapolis Center
Wed 04:33:27 PM 38.0147 -83.0611 235° Southwest 343 395 28,000  Level Indianapolis Center
Wed 04:34:29 PM 37.9522 -83.1761 235° Southwest 341 392 28,000  Level Indianapolis Center
Wed 04:35:31 PM 37.8994 -83.2747 236° Southwest 341 392 28,000  Level Indianapolis Center
Wed 04:36:33 PM 37.8458 -83.3733 235° Southwest 340 391 28,000  Level Indianapolis Center
Wed 04:37:35 PM 37.7931 -83.4714 236° Southwest 340 391 28,000  Level Indianapolis Center
Wed 04:38:37 PM 37.7308 -83.5844 235° Southwest 338 389 28,000  Level Indianapolis Center
Wed 04:39:39 PM 37.6769 -83.6825 235° Southwest 340 391 28,000  Level Indianapolis Center
Wed 04:40:41 PM 37.6256 -83.7775 236° Southwest 332 382 28,000  Level Indianapolis Center
Wed 04:41:43 PM 37.5719 -83.8733 235° Southwest 333 383 28,000  Level Indianapolis Center
Wed 04:42:45 PM 37.5192 -83.9689 235° Southwest 333 383 28,000  Level Indianapolis Center
Wed 04:43:48 PM 37.4569 -84.0803 235° Southwest 334 384 28,000  Level Indianapolis Center
Wed 04:44:50 PM 37.4044 -84.1753 235° Southwest 332 382 28,000  Level Indianapolis Center
Wed 04:45:52 PM 37.3511 -84.2719 235° Southwest 336 387 28,000  Level Indianapolis Center
Wed 04:46:54 PM 37.2967 -84.3681 235° Southwest 337 388 28,000 -146 Level Indianapolis Center
Wed 04:47:55 PM 37.2436 -84.4647 235° Southwest 339 390 27,700 -732 Descending Indianapolis Center
Wed 04:48:57 PM 37.1789 -84.5781 234° Southwest 343 395 26,500 -1,113 Descending Indianapolis Center
Wed 04:49:59 PM 37.1253 -84.6742 235° Southwest 336 387 25,400 -919 Descending Indianapolis Center
Wed 04:51:01 PM 37.0717 -84.7669 234° Southwest 329 379 24,600 -726 Descending Indianapolis Center
Wed 04:52:03 PM 37.0167 -84.8642 235° Southwest 326 375 23,900 -629 Descending Indianapolis Center
Wed 04:53:05 PM 36.9642 -84.9550 234° Southwest 323 372 23,300 -581 Descending Indianapolis Center
Wed 04:54:07 PM 36.9172 -85.0436 236° Southwest 313 360 22,700 -532 Descending Indianapolis Center
Wed 04:55:09 PM 36.8761 -85.1331 240° Southwest 301 346 22,200 -339 Descending Indianapolis Center
Wed 04:56:11 PM 36.8278 -85.2369 240° Southwest 290 334 22,000 -97 Descending Indianapolis Center
Wed 04:57:13 PM 36.7872 -85.3219 239° Southwest 286 329 22,000  Level Indianapolis Center
Wed 04:57:58 PM 36.7553 -85.3875 239° Southwest 300 345 22,000  Level Memphis Center
Wed 04:58:58 PM 36.7150 -85.4781 241° Southwest 300 345 22,000  Level Memphis Center
Wed 04:59:58 PM 36.6747 -85.5658 240° Southwest 300 345 22,000  Level Memphis Center
Wed 05:00:58 PM 36.6300 -85.6536 238° Southwest 300 345 22,000 -353 Level Memphis Center
Wed 05:01:57 PM 36.5894 -85.7361 239° Southwest 300 345 21,300 -1,000 Descending Memphis Center
Wed 05:02:58 PM 36.5528 -85.8183 241° Southwest 288 331 20,000 -694 Descending Memphis Center
Wed 05:03:58 PM 36.5161 -85.8953 239° Southwest 270 311 19,900 -1,050 Descending Memphis Center
Wed 05:04:58 PM 36.4772 -85.9775 240° Southwest 270 311 17,900 -1,700 Descending Memphis Center
Wed 05:05:58 PM 36.4444 -86.0489 240° Southwest 275 316 16,500 -1,750 Descending Memphis Center
Wed 05:06:58 PM 36.4053 -86.1283 239° Southwest 275 316 14,400 -1,950 Descending Memphis Center
Wed 05:07:58 PM 36.3664 -86.2078 239° Southwest 275 316 12,600 -1,800 Descending Memphis Center
Wed 05:08:58 PM 36.3294 -86.2842 239° Southwest 270 311 10,800 -1,350 Descending Memphis Center
Wed 05:09:58 PM 36.2942 -86.3608 240° Southwest 264 304 9,900 -1,200 Descending Memphis Center
Wed 05:10:58 PM 36.2569 -86.4344 238° Southwest 253 291 8,400 -1,450 Descending Memphis Center
Wed 05:11:58 PM 36.2236 -86.5031 239° Southwest 241 277 7,000 -1,300 Descending Memphis Center
Wed 05:12:58 PM 36.1664 -86.5367 205° Southwest 222 255 5,800 -1,000 Descending Memphis Center
Wed 05:13:58 PM 36.1042 -86.5497 190° South 222 255 5,000 -450 Descending Memphis Center
Wed 05:14:58 PM 36.0442 -86.5656 192° South 222 255 4,900 -150 Descending Memphis Center
Wed 05:15:58 PM 35.9947 -86.5781 192° South 204 235 4,700 -594 Descending Memphis Center
Wed 05:18:10 PM 35.9000 -86.6333 205° Southwest 183 211 3,000 -515 Descending Nashville TRACON
Wed 05:19:16 PM 35.8833 -86.6833 248° West 167 192 3,000  Level Nashville TRACON
Wed 05:20:10 PM 35.9000 -86.7333 292° West 164 189 3,000  Level Nashville TRACON
Wed 05:21:10 PM 35.9500 -86.7333 360° North 171 197 3,000  Level Nashville TRACON
Wed 05:22:10 PM 35.9833 -86.7167 22° Northeast 167 192 3,000 -200 Level Nashville TRACON
Wed 05:23:10 PM 36.0333 -86.7000 15° North 164 189 2,600 -700 Descending Nashville TRACON
Wed 05:24:10 PM 36.0667 -86.6833 22° Northeast 152 175 1,600 -950 Descending Nashville TRACON
Wed 05:25:10 PM 36.1000 -86.6667 22° Northeast 127 146 700 -900 Descending Nashville TRACON
Wed 05:27:00 PM 36.1167 -86.6667 353° North  Level FlightAware Approximate
Wed 05:34:00 PM 36.1245 -86.6782 353° North  Level Estimated
Wed 05:35:00 PM 36.1245 -86.6782 353° North  Level Estimated
Wed 05:36:00 PM 36.1245 -86.6782 353° North  Level Estimated

Login

Don't have an account? Register now (free) for customized features, flight alerts, and more!